Station Historical Data
Daily Summary for July 28, 2017 Units:  English    Metric   Both
« Previous Day
Next Day »
Daily Weekly Monthly Yearly Custom
  High: Low: Average:
Temperature: 74.9 °F 59.2 °F 68 °F
Dew Point: 66.1 °F 50.5 °F 59.1 °F
Humidity: 87% 54% 74%
Wind Speed: 13.0mph 0.0mph 3.8mph
Wind Gust: 19.0mph - -
Wind- - ENE
Pressure: 29.95 in 29.87 in -
Precipitation: 0.00 in    
Historical Graphs
 
 
Tabular Data for July 28, 2017
Time Temperature Dew Point Pressure Wind Wind Speed Wind Gust Humidity Rainfall Rate (Hourly)
00:04 71.9 °F 66.1 °F 29.88 in Calm   4.0 mph 82% 0.00 in
00:09 71.8 °F 66.0 °F 29.88 in NNW 1.0 mph 4.0 mph 82% 0.00 in
00:14 71.7 °F 65.6 °F 29.88 in NNW 2.0 mph 5.0 mph 81% 0.00 in
00:19 71.5 °F 65.7 °F 29.88 in North 3.0 mph 3.0 mph 82% 0.00 in
00:24 71.3 °F 65.5 °F 29.88 in Calm   3.0 mph 82% 0.00 in
00:29 71.1 °F 65.3 °F 29.88 in Calm   3.0 mph 82% 0.00 in
00:34 70.9 °F 65.1 °F 29.88 in NNW 4.0 mph 6.0 mph 82% 0.00 in
00:39 70.6 °F 64.8 °F 29.88 in NNW 2.0 mph 6.0 mph 82% 0.00 in
00:44 70.4 °F 65.0 °F 29.88 in North 2.0 mph 6.0 mph 83% 0.00 in
00:49 70.1 °F 64.7 °F 29.88 in NNW 1.0 mph 6.0 mph 83% 0.00 in
00:55 70.0 °F 64.6 °F 29.88 in NNW 1.0 mph 5.0 mph 83% 0.00 in
00:59 69.8 °F 64.4 °F 29.88 in Calm   2.0 mph 83% 0.00 in
01:04 69.6 °F 64.2 °F 29.88 in Calm   3.0 mph 83% 0.00 in
01:09 69.5 °F 64.5 °F 29.88 in NNW 1.0 mph 4.0 mph 84% 0.00 in
01:14 69.5 °F 64.5 °F 29.88 in Calm   3.0 mph 84% 0.00 in
01:19 69.5 °F 64.5 °F 29.88 in Calm   2.0 mph 84% 0.00 in
01:24 69.6 °F 64.5 °F 29.88 in Calm   2.0 mph 84% 0.00 in
01:29 69.6 °F 64.5 °F 29.88 in NNE 1.0 mph 2.0 mph 84% 0.00 in
01:34 69.6 °F 64.5 °F 29.88 in NNE 1.0 mph 3.0 mph 84% 0.00 in
01:39 69.5 °F 64.5 °F 29.88 in NNE 1.0 mph 3.0 mph 84% 0.00 in
01:44 69.4 °F 64.4 °F 29.87 in NNE 1.0 mph 3.0 mph 84% 0.00 in
01:49 69.2 °F 64.2 °F 29.88 in NNE 1.0 mph 3.0 mph 84% 0.00 in
01:54 69.1 °F 64.1 °F 29.88 in NNW 2.0 mph 3.0 mph 84% 0.00 in
01:59 69.0 °F 64.0 °F 29.88 in East 1.0 mph 3.0 mph 84% 0.00 in
02:04 68.9 °F 63.9 °F 29.88 in North 1.0 mph 3.0 mph 84% 0.00 in
02:09 68.9 °F 63.9 °F 29.88 in NNE 1.0 mph 3.0 mph 84% 0.00 in
02:14 68.7 °F 63.7 °F 29.88 in NNE 1.0 mph 4.0 mph 84% 0.00 in
02:19 68.4 °F 63.4 °F 29.87 in Calm   5.0 mph 84% 0.00 in
02:24 68.3 °F 63.3 °F 29.87 in Calm   3.0 mph 84% 0.00 in
02:29 68.2 °F 63.2 °F 29.88 in NNE 1.0 mph 10.0 mph 84% 0.00 in
02:34 68.1 °F 62.7 °F 29.87 in NE 3.0 mph 7.0 mph 83% 0.00 in
02:39 68.0 °F 62.6 °F 29.87 in NE 2.0 mph 7.0 mph 83% 0.00 in
02:44 67.9 °F 62.5 °F 29.87 in ENE 5.0 mph 8.0 mph 83% 0.00 in
02:49 67.9 °F 62.5 °F 29.88 in NE 4.0 mph 9.0 mph 83% 0.00 in
02:54 67.7 °F 62.3 °F 29.88 in NE 4.0 mph 13.0 mph 83% 0.00 in
02:59 67.7 °F 62.3 °F 29.87 in NE 5.0 mph 12.0 mph 83% 0.00 in
03:04 67.7 °F 62.3 °F 29.87 in NE 5.0 mph 12.0 mph 83% 0.00 in
03:09 67.7 °F 62.3 °F 29.87 in NE 6.0 mph 11.0 mph 83% 0.00 in
03:14 67.6 °F 62.3 °F 29.87 in NE 6.0 mph 11.0 mph 83% 0.00 in
03:20 67.4 °F 62.1 °F 29.87 in NE 5.0 mph 10.0 mph 83% 0.00 in
03:24 67.3 °F 62.0 °F 29.88 in ENE 4.0 mph 9.0 mph 83% 0.00 in
03:29 67.2 °F 61.9 °F 29.88 in ENE 3.0 mph 9.0 mph 83% 0.00 in
03:34 67.1 °F 61.8 °F 29.88 in ENE 3.0 mph 9.0 mph 83% 0.00 in
03:39 66.9 °F 61.6 °F 29.88 in ENE 4.0 mph 9.0 mph 83% 0.00 in
03:44 66.8 °F 61.5 °F 29.88 in ENE 2.0 mph 8.0 mph 83% 0.00 in
03:49 66.7 °F 61.4 °F 29.88 in ENE 3.0 mph 9.0 mph 83% 0.00 in
03:54 66.6 °F 61.3 °F 29.88 in NE 5.0 mph 10.0 mph 83% 0.00 in
03:59 66.6 °F 61.6 °F 29.88 in NE 4.0 mph 10.0 mph 84% 0.00 in
04:04 66.4 °F 61.1 °F 29.88 in NE 5.0 mph 10.0 mph 83% 0.00 in
04:09 66.4 °F 61.1 °F 29.88 in NE 5.0 mph 11.0 mph 83% 0.00 in
04:14 66.4 °F 61.4 °F 29.88 in NE 4.0 mph 9.0 mph 84% 0.00 in
04:19 66.3 °F 61.3 °F 29.88 in NNE 6.0 mph 9.0 mph 84% 0.00 in
04:24 66.2 °F 61.2 °F 29.88 in NE 4.0 mph 9.0 mph 84% 0.00 in
04:29 66.1 °F 61.1 °F 29.88 in NE 4.0 mph 10.0 mph 84% 0.00 in
04:34 65.9 °F 60.9 °F 29.89 in NE 4.0 mph 11.0 mph 84% 0.00 in
04:39 65.9 °F 60.9 °F 29.89 in ENE 3.0 mph 9.0 mph 84% 0.00 in
04:44 65.8 °F 60.8 °F 29.89 in ENE 5.0 mph 8.0 mph 84% 0.00 in
04:49 65.8 °F 60.8 °F 29.89 in ENE 1.0 mph 9.0 mph 84% 0.00 in
04:54 65.7 °F 60.7 °F 29.89 in ENE 3.0 mph 9.0 mph 84% 0.00 in
04:59 65.6 °F 60.6 °F 29.89 in NE 4.0 mph 9.0 mph 84% 0.00 in
05:04 65.5 °F 60.9 °F 29.89 in NE 3.0 mph 8.0 mph 85% 0.00 in
05:09 65.4 °F 60.8 °F 29.89 in NE 4.0 mph 8.0 mph 85% 0.00 in
05:14 65.3 °F 60.7 °F 29.89 in ENE 3.0 mph 8.0 mph 85% 0.00 in
05:19 65.1 °F 60.5 °F 29.89 in Calm   7.0 mph 85% 0.00 in
05:24 64.9 °F 60.3 °F 29.89 in NE 3.0 mph 10.0 mph 85% 0.00 in
05:29 64.8 °F 60.5 °F 29.89 in NE 2.0 mph 10.0 mph 86% 0.00 in
05:34 64.8 °F 60.5 °F 29.89 in NE 3.0 mph 9.0 mph 86% 0.00 in
05:44 64.7 °F 60.4 °F 29.89 in NE 4.0 mph 8.0 mph 86% 0.00 in
05:49 64.7 °F 60.4 °F 29.89 in ENE 1.0 mph 7.0 mph 86% 0.00 in
05:54 64.5 °F 60.2 °F 29.90 in NE 3.0 mph 7.0 mph 86% 0.00 in
05:59 64.5 °F 60.2 °F 29.90 in NE 6.0 mph 10.0 mph 86% 0.00 in
06:04 64.5 °F 60.2 °F 29.90 in NE 1.0 mph 8.0 mph 86% 0.00 in
06:09 64.4 °F 60.1 °F 29.90 in NE 3.0 mph 9.0 mph 86% 0.00 in
06:14 64.4 °F 60.1 °F 29.90 in NE 1.0 mph 5.0 mph 86% 0.00 in
06:19 64.4 °F 60.1 °F 29.90 in NE 2.0 mph 8.0 mph 86% 0.00 in
06:24 64.4 °F 60.4 °F 29.90 in NE 4.0 mph 9.0 mph 87% 0.00 in
06:29 64.5 °F 60.5 °F 29.90 in NE 4.0 mph 9.0 mph 87% 0.00 in
06:34 64.4 °F 60.4 °F 29.90 in NE 3.0 mph 8.0 mph 87% 0.00 in
06:39 64.4 °F 60.4 °F 29.90 in NE 3.0 mph 8.0 mph 87% 0.00 in
06:44 64.5 °F 60.5 °F 29.90 in NE 3.0 mph 10.0 mph 87% 0.00 in
06:49 64.5 °F 60.5 °F 29.90 in NE 2.0 mph 9.0 mph 87% 0.00 in
06:54 64.5 °F 60.5 °F 29.90 in NE 2.0 mph 9.0 mph 87% 0.00 in
06:59 64.5 °F 60.5 °F 29.90 in NE 2.0 mph 6.0 mph 87% 0.00 in
07:04 64.5 °F 60.5 °F 29.90 in NE 4.0 mph 9.0 mph 87% 0.00 in
07:09 64.7 °F 60.7 °F 29.91 in ENE 3.0 mph 7.0 mph 87% 0.00 in
07:14 64.8 °F 60.8 °F 29.91 in NE 2.0 mph 8.0 mph 87% 0.00 in
07:19 65.0 °F 61.0 °F 29.91 in ENE 3.0 mph 9.0 mph 87% 0.00 in
07:24 65.0 °F 61.0 °F 29.91 in NE 4.0 mph 9.0 mph 87% 0.00 in
07:29 65.2 °F 61.2 °F 29.91 in NE 4.0 mph 9.0 mph 87% 0.00 in
07:34 65.4 °F 61.1 °F 29.91 in NE 4.0 mph 10.0 mph 86% 0.00 in
07:39 65.6 °F 61.3 °F 29.91 in ENE 5.0 mph 10.0 mph 86% 0.00 in
07:44 65.7 °F 61.1 °F 29.91 in ENE 3.0 mph 9.0 mph 85% 0.00 in
07:49 65.8 °F 61.2 °F 29.91 in NE 7.0 mph 11.0 mph 85% 0.00 in
07:54 65.9 °F 60.9 °F 29.92 in NE 5.0 mph 13.0 mph 84% 0.00 in
07:59 66.2 °F 61.2 °F 29.92 in NE 8.0 mph 9.0 mph 84% 0.00 in
08:04 66.3 °F 61.3 °F 29.92 in NE 7.0 mph 10.0 mph 84% 0.00 in
08:09 66.5 °F 61.2 °F 29.92 in NE 4.0 mph 9.0 mph 83% 0.00 in
08:14 66.6 °F 61.3 °F 29.92 in NE 6.0 mph 11.0 mph 83% 0.00 in
08:19 66.8 °F 61.5 °F 29.92 in NE 6.0 mph 12.0 mph 83% 0.00 in
08:24 66.9 °F 61.6 °F 29.92 in NE 6.0 mph 12.0 mph 83% 0.00 in
08:29 66.9 °F 61.2 °F 29.92 in NE 6.0 mph 12.0 mph 82% 0.00 in
08:34 67.0 °F 61.3 °F 29.92 in East 5.0 mph 13.0 mph 82% 0.00 in
08:44 67.5 °F 62.2 °F 29.92 in ENE 4.0 mph 8.0 mph 83% 0.00 in
08:49 67.7 °F 62.0 °F 29.93 in ENE 3.0 mph 10.0 mph 82% 0.00 in
08:54 67.4 °F 61.7 °F 29.92 in ENE 12.0 mph 15.0 mph 82% 0.00 in
08:59 67.3 °F 61.6 °F 29.92 in NE 3.0 mph 15.0 mph 82% 0.00 in
09:04 67.7 °F 62.0 °F 29.92 in NE 3.0 mph 12.0 mph 82% 0.00 in
09:09 67.9 °F 61.9 °F 29.92 in ENE 6.0 mph 12.0 mph 81% 0.00 in
09:14 68.1 °F 62.0 °F 29.92 in NE 8.0 mph 10.0 mph 81% 0.00 in
09:19 68.0 °F 61.9 °F 29.92 in NE 6.0 mph 12.0 mph 81% 0.00 in
09:24 68.1 °F 62.0 °F 29.92 in NE 4.0 mph 13.0 mph 81% 0.00 in
09:29 68.3 °F 61.9 °F 29.92 in ENE 12.0 mph 12.0 mph 80% 0.00 in
09:34 68.7 °F 62.3 °F 29.92 in ENE 4.0 mph 12.0 mph 80% 0.00 in
09:39 69.1 °F 62.7 °F 29.92 in ENE 5.0 mph 12.0 mph 80% 0.00 in
09:44 69.2 °F 62.4 °F 29.92 in ENE 5.0 mph 11.0 mph 79% 0.00 in
09:49 69.0 °F 62.2 °F 29.92 in East 5.0 mph 11.0 mph 79% 0.00 in
09:54 69.0 °F 61.9 °F 29.92 in ENE 3.0 mph 13.0 mph 78% 0.00 in
09:59 69.2 °F 62.4 °F 29.92 in ENE 4.0 mph 11.0 mph 79% 0.00 in
10:04 69.4 °F 62.6 °F 29.92 in NE 5.0 mph 11.0 mph 79% 0.00 in
10:09 69.6 °F 62.4 °F 29.92 in NE 5.0 mph 13.0 mph 78% 0.00 in
10:14 69.5 °F 62.7 °F 29.93 in ENE 3.0 mph 10.0 mph 79% 0.00 in
10:19 69.1 °F 61.9 °F 29.93 in NE 3.0 mph 12.0 mph 78% 0.00 in
10:24 69.2 °F 62.0 °F 29.93 in ENE 9.0 mph 13.0 mph 78% 0.00 in
10:29 69.4 °F 62.2 °F 29.93 in NE 6.0 mph 13.0 mph 78% 0.00 in
10:39 69.3 °F 61.8 °F 29.93 in NE 6.0 mph 14.0 mph 77% 0.00 in
10:44 69.7 °F 62.2 °F 29.93 in NE 4.0 mph 11.0 mph 77% 0.00 in
10:49 70.1 °F 62.6 °F 29.93 in ENE 11.0 mph 12.0 mph 77% 0.00 in
10:54 69.8 °F 62.3 °F 29.93 in NE 9.0 mph 11.0 mph 77% 0.00 in
10:59 69.8 °F 62.6 °F 29.92 in NNE 5.0 mph 12.0 mph 78% 0.00 in
11:04 69.9 °F 62.7 °F 29.92 in NE 7.0 mph 11.0 mph 78% 0.00 in
11:09 69.9 °F 62.4 °F 29.92 in NE 4.0 mph 9.0 mph 77% 0.00 in
11:14 69.8 °F 62.3 °F 29.93 in ENE 9.0 mph 10.0 mph 77% 0.00 in
11:19 69.6 °F 62.1 °F 29.93 in NE 4.0 mph 10.0 mph 77% 0.00 in
11:24 69.5 °F 62.3 °F 29.93 in NE 6.0 mph 9.0 mph 78% 0.00 in
11:29 69.6 °F 62.4 °F 29.93 in NE 5.0 mph 9.0 mph 78% 0.00 in
11:34 70.1 °F 62.6 °F 29.93 in North 2.0 mph 8.0 mph 77% 0.00 in
11:39 70.5 °F 62.6 °F 29.93 in NNE 3.0 mph 5.0 mph 76% 0.00 in
11:44 70.2 °F 62.3 °F 29.93 in NNE 3.0 mph 11.0 mph 76% 0.00 in
11:49 70.0 °F 62.1 °F 29.93 in NE 5.0 mph 13.0 mph 76% 0.00 in
11:59 70.5 °F 62.2 °F 29.93 in North 3.0 mph 8.0 mph 75% 0.00 in
12:04 71.6 °F 62.5 °F 29.93 in NE 2.0 mph 16.0 mph 73% 0.00 in
12:09 72.5 °F 63.4 °F 29.93 in NE 6.0 mph 16.0 mph 73% 0.00 in
12:14 72.9 °F 62.9 °F 29.93 in East 3.0 mph 11.0 mph 71% 0.00 in
12:19 71.9 °F 61.6 °F 29.93 in NNE 4.0 mph 15.0 mph 70% 0.00 in
12:24 71.6 °F 62.5 °F 29.93 in ENE 12.0 mph 12.0 mph 73% 0.00 in
12:34 72.4 °F 62.9 °F 29.92 in ENE 7.0 mph 15.0 mph 72% 0.00 in
12:39 72.4 °F 62.5 °F 29.92 in ENE 5.0 mph 14.0 mph 71% 0.00 in
12:44 72.1 °F 62.2 °F 29.92 in ENE 5.0 mph 13.0 mph 71% 0.00 in
12:49 71.5 °F 62.0 °F 29.93 in NE 6.0 mph 15.0 mph 72% 0.00 in
12:54 71.6 °F 61.7 °F 29.93 in North 3.0 mph 10.0 mph 71% 0.00 in
12:59 71.4 °F 61.5 °F 29.93 in ENE 7.0 mph 15.0 mph 71% 0.00 in
13:04 71.3 °F 61.4 °F 29.93 in NE 5.0 mph 10.0 mph 71% 0.00 in
13:09 71.4 °F 61.5 °F 29.92 in NE 5.0 mph 13.0 mph 71% 0.00 in
13:14 71.2 °F 61.3 °F 29.92 in NNE 4.0 mph 10.0 mph 71% 0.00 in
13:19 71.1 °F 61.6 °F 29.92 in NE 9.0 mph 14.0 mph 72% 0.00 in
13:24 71.3 °F 61.4 °F 29.92 in NE 6.0 mph 14.0 mph 71% 0.00 in
13:29 71.7 °F 61.8 °F 29.92 in NE 5.0 mph 12.0 mph 71% 0.00 in
13:34 73.0 °F 62.6 °F 29.92 in ENE 9.0 mph 12.0 mph 70% 0.00 in
13:39 73.1 °F 62.7 °F 29.92 in NNE 3.0 mph 12.0 mph 70% 0.00 in
13:44 72.7 °F 62.3 °F 29.92 in ENE 8.0 mph 14.0 mph 70% 0.00 in
13:49 72.6 °F 61.8 °F 29.92 in NE 8.0 mph 11.0 mph 69% 0.00 in
13:54 74.0 °F 62.8 °F 29.92 in NE 6.0 mph 15.0 mph 68% 0.00 in
13:59 74.3 °F 63.1 °F 29.92 in ENE 6.0 mph 15.0 mph 68% 0.00 in
14:04 74.1 °F 62.4 °F 29.92 in NNE 4.0 mph 12.0 mph 67% 0.00 in
14:09 74.6 °F 62.1 °F 29.92 in ENE 6.0 mph 15.0 mph 65% 0.00 in
14:19 73.7 °F 60.8 °F 29.92 in NE 6.0 mph 14.0 mph 64% 0.00 in
14:24 74.4 °F 61.9 °F 29.91 in East 3.0 mph 9.0 mph 65% 0.00 in
14:29 74.6 °F 61.2 °F 29.92 in East 9.0 mph 12.0 mph 63% 0.00 in
14:34 74.2 °F 61.2 °F 29.92 in ENE 9.0 mph 15.0 mph 64% 0.00 in
14:39 74.7 °F 60.8 °F 29.92 in NE 4.0 mph 14.0 mph 62% 0.00 in
14:44 73.1 °F 60.6 °F 29.91 in NE 6.0 mph 14.0 mph 65% 0.00 in
14:49 73.3 °F 61.3 °F 29.92 in NE 5.0 mph 13.0 mph 66% 0.00 in
14:54 72.8 °F 60.3 °F 29.92 in NNE 4.0 mph 14.0 mph 65% 0.00 in
14:59 73.2 °F 60.7 °F 29.92 in ENE 3.0 mph 15.0 mph 65% 0.00 in
15:04 74.9 °F 62.3 °F 29.92 in NE 3.0 mph 12.0 mph 65% 0.00 in
15:09 74.7 °F 61.3 °F 29.91 in NE 6.0 mph 12.0 mph 63% 0.00 in
15:14 74.5 °F 61.5 °F 29.91 in NE 7.0 mph 16.0 mph 64% 0.00 in
15:19 74.9 °F 61.0 °F 29.91 in North 3.0 mph 13.0 mph 62% 0.00 in
15:24 74.9 °F 60.5 °F 29.91 in ENE 5.0 mph 15.0 mph 61% 0.00 in
15:29 74.6 °F 61.2 °F 29.91 in North 3.0 mph 16.0 mph 63% 0.00 in
15:34 73.7 °F 59.9 °F 29.91 in ENE 13.0 mph 14.0 mph 62% 0.00 in
15:39 73.8 °F 59.5 °F 29.91 in NNE 4.0 mph 13.0 mph 61% 0.00 in
15:44 73.5 °F 59.7 °F 29.91 in ENE 5.0 mph 16.0 mph 62% 0.00 in
15:49 74.0 °F 60.6 °F 29.91 in NE 7.0 mph 10.0 mph 63% 0.00 in
15:54 73.5 °F 59.7 °F 29.91 in NE 6.0 mph 15.0 mph 62% 0.00 in
15:59 74.3 °F 60.4 °F 29.91 in NE 7.0 mph 15.0 mph 62% 0.00 in
16:04 74.0 °F 60.6 °F 29.90 in NE 6.0 mph 14.0 mph 63% 0.00 in
16:09 73.2 °F 59.4 °F 29.90 in NNE 2.0 mph 18.0 mph 62% 0.00 in
16:14 73.5 °F 59.2 °F 29.90 in NE 6.0 mph 15.0 mph 61% 0.00 in
16:19 73.1 °F 59.3 °F 29.91 in ENE 3.0 mph 15.0 mph 62% 0.00 in
16:24 73.7 °F 60.3 °F 29.91 in NNE 4.0 mph 12.0 mph 63% 0.00 in
16:29 73.1 °F 59.8 °F 29.91 in ENE 10.0 mph 13.0 mph 63% 0.00 in
16:34 73.3 °F 59.9 °F 29.91 in Calm   10.0 mph 63% 0.00 in
16:39 73.0 °F 58.3 °F 29.91 in ENE 9.0 mph 15.0 mph 60% 0.00 in
16:44 72.4 °F 58.2 °F 29.91 in ENE 11.0 mph 16.0 mph 61% 0.00 in
16:49 71.7 °F 58.9 °F 29.91 in NE 8.0 mph 16.0 mph 64% 0.00 in
16:54 72.2 °F 59.3 °F 29.91 in NE 5.0 mph 15.0 mph 64% 0.00 in
16:59 72.0 °F 59.2 °F 29.91 in NNE 4.0 mph 13.0 mph 64% 0.00 in
17:04 71.4 °F 58.6 °F 29.91 in NE 6.0 mph 14.0 mph 64% 0.00 in
17:09 70.8 °F 58.4 °F 29.91 in NNE 3.0 mph 13.0 mph 65% 0.00 in
17:14 70.8 °F 58.9 °F 29.91 in NE 3.0 mph 11.0 mph 66% 0.00 in
17:19 71.1 °F 58.7 °F 29.91 in NE 8.0 mph 14.0 mph 65% 0.00 in
17:24 70.6 °F 57.8 °F 29.91 in NE 11.0 mph 15.0 mph 64% 0.00 in
17:29 70.4 °F 58.1 °F 29.91 in NE 7.0 mph 16.0 mph 65% 0.00 in
17:34 70.1 °F 57.4 °F 29.91 in North 4.0 mph 15.0 mph 64% 0.00 in
17:39 69.7 °F 57.4 °F 29.91 in NE 5.0 mph 15.0 mph 65% 0.00 in
17:44 69.7 °F 57.8 °F 29.91 in NNE 4.0 mph 9.0 mph 66% 0.00 in
17:49 69.5 °F 56.8 °F 29.90 in NE 5.0 mph 9.0 mph 64% 0.00 in
17:54 69.4 °F 56.7 °F 29.90 in North 4.0 mph 11.0 mph 64% 0.00 in
17:59 69.1 °F 56.8 °F 29.90 in NE 4.0 mph 13.0 mph 65% 0.00 in
18:04 69.2 °F 55.6 °F 29.91 in NE 7.0 mph 15.0 mph 62% 0.00 in
18:09 69.4 °F 55.8 °F 29.91 in NE 7.0 mph 15.0 mph 62% 0.00 in
18:14 69.4 °F 53.5 °F 29.90 in NE 8.0 mph 19.0 mph 57% 0.00 in
18:19 69.3 °F 54.4 °F 29.90 in NE 8.0 mph 19.0 mph 59% 0.00 in
18:24 69.3 °F 52.9 °F 29.90 in NE 7.0 mph 14.0 mph 56% 0.00 in
18:34 69.0 °F 52.6 °F 29.91 in NE 3.0 mph 15.0 mph 56% 0.00 in
18:39 68.9 °F 52.1 °F 29.91 in NE 3.0 mph 13.0 mph 55% 0.00 in
18:44 69.0 °F 52.2 °F 29.91 in ENE 7.0 mph 13.0 mph 55% 0.00 in
18:49 68.6 °F 51.8 °F 29.91 in NNE 1.0 mph 14.0 mph 55% 0.00 in
18:54 68.4 °F 51.1 °F 29.91 in ENE 7.0 mph 15.0 mph 54% 0.00 in
18:59 68.5 °F 51.7 °F 29.91 in NE 6.0 mph 15.0 mph 55% 0.00 in
19:04 68.5 °F 52.2 °F 29.91 in NE 6.0 mph 15.0 mph 56% 0.00 in
19:09 68.3 °F 51.5 °F 29.91 in NE 5.0 mph 10.0 mph 55% 0.00 in
19:14 68.1 °F 51.3 °F 29.92 in NE 10.0 mph 13.0 mph 55% 0.00 in
19:19 67.7 °F 51.4 °F 29.91 in NE 2.0 mph 10.0 mph 56% 0.00 in
19:24 67.6 °F 50.9 °F 29.92 in NNE 3.0 mph 13.0 mph 55% 0.00 in
19:29 67.4 °F 51.2 °F 29.92 in NE 5.0 mph 13.0 mph 56% 0.00 in
19:34 67.5 °F 50.8 °F 29.92 in NE 5.0 mph 13.0 mph 55% 0.00 in
19:39 67.6 °F 51.3 °F 29.92 in ENE 9.0 mph 12.0 mph 56% 0.00 in
19:44 67.5 °F 50.8 °F 29.93 in ENE 5.0 mph 14.0 mph 55% 0.00 in
19:49 67.4 °F 50.7 °F 29.93 in NE 7.0 mph 13.0 mph 55% 0.00 in
19:59 66.9 °F 50.7 °F 29.93 in NE 6.0 mph 14.0 mph 56% 0.00 in
20:04 66.7 °F 50.5 °F 29.93 in ENE 5.0 mph 14.0 mph 56% 0.00 in
20:09 66.5 °F 50.8 °F 29.93 in NE 5.0 mph 10.0 mph 57% 0.00 in
20:14 66.4 °F 50.7 °F 29.93 in NE 4.0 mph 10.0 mph 57% 0.00 in
20:19 66.3 °F 50.6 °F 29.93 in NE 3.0 mph 8.0 mph 57% 0.00 in
20:24 66.1 °F 50.9 °F 29.93 in ENE 3.0 mph 9.0 mph 58% 0.00 in
20:29 65.8 °F 51.1 °F 29.93 in ENE 3.0 mph 9.0 mph 59% 0.00 in
20:34 65.5 °F 50.8 °F 29.93 in NE 2.0 mph 6.0 mph 59% 0.00 in
20:39 65.4 °F 51.1 °F 29.93 in NE 1.0 mph 6.0 mph 60% 0.00 in
20:44 64.9 °F 51.1 °F 29.93 in Calm   3.0 mph 61% 0.00 in
20:49 64.6 °F 51.3 °F 29.93 in Calm   3.0 mph 62% 0.00 in
20:54 64.1 °F 51.2 °F 29.93 in Calm   3.0 mph 63% 0.00 in
20:59 63.9 °F 51.1 °F 29.93 in Calm   3.0 mph 63% 0.00 in
21:04 63.8 °F 51.0 °F 29.94 in NE 1.0 mph 3.0 mph 63% 0.00 in
21:09 63.4 °F 51.0 °F 29.94 in Calm   1.0 mph 64% 0.00 in
21:14 63.2 °F 51.2 °F 29.94 in Calm   2.0 mph 65% 0.00 in
21:19 63.1 °F 51.1 °F 29.94 in Calm     65% 0.00 in
21:24 62.8 °F 50.9 °F 29.94 in Calm     65% 0.00 in
21:29 62.5 °F 51.0 °F 29.94 in Calm     66% 0.00 in
21:34 62.3 °F 51.2 °F 29.94 in Calm     67% 0.00 in
21:39 62.1 °F 51.0 °F 29.94 in Calm     67% 0.00 in
21:44 61.9 °F 51.2 °F 29.94 in Calm     68% 0.00 in
21:49 61.8 °F 51.1 °F 29.94 in Calm     68% 0.00 in
21:54 61.7 °F 51.4 °F 29.94 in Calm   1.0 mph 69% 0.00 in
21:59 61.7 °F 51.4 °F 29.94 in Calm   1.0 mph 69% 0.00 in
22:04 61.6 °F 50.9 °F 29.94 in Calm   1.0 mph 68% 0.00 in
22:09 61.4 °F 51.1 °F 29.94 in Calm     69% 0.00 in
22:14 61.4 °F 51.1 °F 29.94 in Calm     69% 0.00 in
22:19 61.1 °F 51.2 °F 29.94 in Calm     70% 0.00 in
22:24 60.9 °F 51.0 °F 29.94 in Calm     70% 0.00 in
22:29 60.9 °F 51.4 °F 29.94 in Calm     71% 0.00 in
22:34 60.7 °F 51.2 °F 29.94 in Calm     71% 0.00 in
22:39 60.7 °F 51.2 °F 29.94 in Calm     71% 0.00 in
22:44 60.8 °F 51.0 °F 29.95 in Calm     70% 0.00 in
22:54 60.1 °F 51.0 °F 29.94 in Calm     72% 0.00 in
22:59 60.2 °F 51.1 °F 29.94 in Calm     72% 0.00 in
23:04 60.1 °F 51.0 °F 29.94 in Calm     72% 0.00 in
23:09 59.9 °F 50.8 °F 29.94 in Calm     72% 0.00 in
23:14 59.7 °F 51.4 °F 29.94 in Calm     74% 0.00 in
23:19 59.6 °F 51.3 °F 29.94 in Calm     74% 0.00 in
23:24 59.6 °F 51.3 °F 29.94 in Calm     74% 0.00 in
23:29 59.4 °F 51.1 °F 29.94 in Calm     74% 0.00 in
23:34 59.7 °F 51.4 °F 29.94 in Calm     74% 0.00 in
23:39 59.7 °F 51.4 °F 29.94 in Calm     74% 0.00 in
23:44 59.5 °F 51.6 °F 29.94 in Calm     75% 0.00 in
23:49 59.3 °F 51.4 °F 29.94 in Calm     75% 0.00 in
23:54 59.2 °F 51.6 °F 29.94 in Calm     76% 0.00 in
23:59 59.2 °F 51.6 °F 29.94 in Calm     76% 0.00 in
Buffalo, New York, USA
Compliments of Weather Underground - 2.25 mb